sensor_id;sensor_type;location;lat;lon;timestamp;P1;durP1;ratioP1;P2;durP2;ratioP2
33206;SDS011;19565;46.602;11.534;2023-04-15T00:01:12;19.20;;;18.30;;
33206;SDS011;19565;46.602;11.534;2023-04-15T00:03:44;19.10;;;18.20;;
33206;SDS011;19565;46.602;11.534;2023-04-15T00:06:13;19.80;;;18.90;;
33206;SDS011;19565;46.602;11.534;2023-04-15T00:08:41;19.53;;;18.63;;
33206;SDS011;19565;46.602;11.534;2023-04-15T00:11:09;19.90;;;19.00;;
33206;SDS011;19565;46.602;11.534;2023-04-15T00:13:37;19.40;;;18.50;;
33206;SDS011;19565;46.602;11.534;2023-04-15T00:16:07;19.63;;;18.73;;
33206;SDS011;19565;46.602;11.534;2023-04-15T00:18:36;19.30;;;18.40;;
33206;SDS011;19565;46.602;11.534;2023-04-15T00:21:05;19.90;;;18.93;;
33206;SDS011;19565;46.602;11.534;2023-04-15T00:23:33;19.90;;;18.90;;
33206;SDS011;19565;46.602;11.534;2023-04-15T00:26:01;19.00;;;18.10;;
33206;SDS011;19565;46.602;11.534;2023-04-15T00:28:29;19.30;;;18.40;;
33206;SDS011;19565;46.602;11.534;2023-04-15T00:30:57;19.30;;;18.30;;
33206;SDS011;19565;46.602;11.534;2023-04-15T00:33:25;19.10;;;18.20;;
33206;SDS011;19565;46.602;11.534;2023-04-15T00:35:55;19.23;;;18.33;;
33206;SDS011;19565;46.602;11.534;2023-04-15T00:38:23;20.80;;;19.70;;
33206;SDS011;19565;46.602;11.534;2023-04-15T00:40:51;19.03;;;18.13;;
33206;SDS011;19565;46.602;11.534;2023-04-15T00:43:20;20.07;;;19.00;;
33206;SDS011;19565;46.602;11.534;2023-04-15T00:45:48;19.50;;;18.50;;
33206;SDS011;19565;46.602;11.534;2023-04-15T00:48:19;19.23;;;18.33;;
33206;SDS011;19565;46.602;11.534;2023-04-15T00:50:47;19.03;;;18.13;;
33206;SDS011;19565;46.602;11.534;2023-04-15T00:53:16;19.60;;;18.67;;
33206;SDS011;19565;46.602;11.534;2023-04-15T00:55:44;19.07;;;18.17;;
33206;SDS011;19565;46.602;11.534;2023-04-15T00:58:12;18.90;;;18.00;;
33206;SDS011;19565;46.602;11.534;2023-04-15T01:00:41;18.60;;;17.70;;
33206;SDS011;19565;46.602;11.534;2023-04-15T01:03:09;18.57;;;17.67;;
33206;SDS011;19565;46.602;11.534;2023-04-15T01:05:37;19.20;;;18.30;;
33206;SDS011;19565;46.602;11.534;2023-04-15T01:08:06;19.30;;;18.40;;
33206;SDS011;19565;46.602;11.534;2023-04-15T01:10:36;19.00;;;18.10;;
33206;SDS011;19565;46.602;11.534;2023-04-15T01:13:04;18.67;;;17.77;;
33206;SDS011;19565;46.602;11.534;2023-04-15T01:15:33;18.37;;;17.47;;
33206;SDS011;19565;46.602;11.534;2023-04-15T01:18:02;18.80;;;17.90;;
33206;SDS011;19565;46.602;11.534;2023-04-15T01:20:31;18.50;;;17.60;;
33206;SDS011;19565;46.602;11.534;2023-04-15T01:23:00;19.03;;;18.13;;
33206;SDS011;19565;46.602;11.534;2023-04-15T01:25:32;19.00;;;18.10;;
33206;SDS011;19565;46.602;11.534;2023-04-15T01:28:00;18.03;;;17.13;;
33206;SDS011;19565;46.602;11.534;2023-04-15T01:30:29;18.60;;;17.70;;
33206;SDS011;19565;46.602;11.534;2023-04-15T01:33:00;18.80;;;17.90;;
33206;SDS011;19565;46.602;11.534;2023-04-15T01:35:28;18.60;;;17.70;;
33206;SDS011;19565;46.602;11.534;2023-04-15T01:37:58;18.73;;;17.83;;
33206;SDS011;19565;46.602;11.534;2023-04-15T01:40:32;18.67;;;17.77;;
33206;SDS011;19565;46.602;11.534;2023-04-15T01:43:01;18.87;;;17.97;;
33206;SDS011;19565;46.602;11.534;2023-04-15T01:45:30;18.90;;;18.00;;
33206;SDS011;19565;46.602;11.534;2023-04-15T01:47:58;18.60;;;17.70;;
33206;SDS011;19565;46.602;11.534;2023-04-15T01:50:26;19.00;;;18.10;;
33206;SDS011;19565;46.602;11.534;2023-04-15T01:52:54;18.23;;;17.33;;
33206;SDS011;19565;46.602;11.534;2023-04-15T01:55:22;18.40;;;17.50;;
33206;SDS011;19565;46.602;11.534;2023-04-15T01:57:51;18.60;;;17.70;;
33206;SDS011;19565;46.602;11.534;2023-04-15T02:00:19;18.43;;;17.53;;
33206;SDS011;19565;46.602;11.534;2023-04-15T02:02:48;19.00;;;18.10;;
33206;SDS011;19565;46.602;11.534;2023-04-15T02:05:16;19.00;;;18.10;;
33206;SDS011;19565;46.602;11.534;2023-04-15T02:07:44;19.67;;;18.20;;
33206;SDS011;19565;46.602;11.534;2023-04-15T02:10:12;19.50;;;18.60;;
33206;SDS011;19565;46.602;11.534;2023-04-15T02:12:41;18.80;;;17.90;;
33206;SDS011;19565;46.602;11.534;2023-04-15T02:15:11;19.50;;;18.60;;
33206;SDS011;19565;46.602;11.534;2023-04-15T02:17:39;19.50;;;18.60;;
33206;SDS011;19565;46.602;11.534;2023-04-15T02:20:11;20.20;;;19.20;;
33206;SDS011;19565;46.602;11.534;2023-04-15T02:22:39;19.57;;;18.67;;
33206;SDS011;19565;46.602;11.534;2023-04-15T02:25:08;18.70;;;17.80;;
33206;SDS011;19565;46.602;11.534;2023-04-15T02:27:36;19.40;;;18.50;;
33206;SDS011;19565;46.602;11.534;2023-04-15T02:30:05;19.87;;;18.87;;
33206;SDS011;19565;46.602;11.534;2023-04-15T02:32:36;20.03;;;18.83;;
33206;SDS011;19565;46.602;11.534;2023-04-15T02:35:04;19.57;;;18.67;;
33206;SDS011;19565;46.602;11.534;2023-04-15T02:37:34;20.30;;;19.30;;
33206;SDS011;19565;46.602;11.534;2023-04-15T02:40:07;19.80;;;18.80;;
33206;SDS011;19565;46.602;11.534;2023-04-15T02:42:37;18.40;;;17.50;;
33206;SDS011;19565;46.602;11.534;2023-04-15T02:45:05;18.90;;;18.00;;
33206;SDS011;19565;46.602;11.534;2023-04-15T02:47:36;19.00;;;18.10;;
33206;SDS011;19565;46.602;11.534;2023-04-15T02:50:07;19.13;;;18.23;;
33206;SDS011;19565;46.602;11.534;2023-04-15T02:52:38;39.47;;;37.77;;
33206;SDS011;19565;46.602;11.534;2023-04-15T02:55:07;39.70;;;38.00;;
33206;SDS011;19565;46.602;11.534;2023-04-15T02:57:35;40.70;;;39.00;;
33206;SDS011;19565;46.602;11.534;2023-04-15T03:00:05;40.20;;;38.50;;
33206;SDS011;19565;46.602;11.534;2023-04-15T03:02:36;38.97;;;37.27;;
33206;SDS011;19565;46.602;11.534;2023-04-15T03:05:05;39.07;;;37.37;;
33206;SDS011;19565;46.602;11.534;2023-04-15T03:07:37;42.37;;;40.57;;
33206;SDS011;19565;46.602;11.534;2023-04-15T03:10:07;41.30;;;39.53;;
33206;SDS011;19565;46.602;11.534;2023-04-15T03:12:35;41.00;;;39.20;;
33206;SDS011;19565;46.602;11.534;2023-04-15T03:15:04;39.97;;;38.27;;
33206;SDS011;19565;46.602;11.534;2023-04-15T03:17:33;41.33;;;39.57;;
33206;SDS011;19565;46.602;11.534;2023-04-15T03:20:03;40.40;;;38.70;;
33206;SDS011;19565;46.602;11.534;2023-04-15T03:22:32;18.70;;;17.80;;
33206;SDS011;19565;46.602;11.534;2023-04-15T03:25:00;39.90;;;38.20;;
33206;SDS011;19565;46.602;11.534;2023-04-15T03:27:28;39.67;;;37.97;;
33206;SDS011;19565;46.602;11.534;2023-04-15T03:29:57;38.23;;;36.63;;
33206;SDS011;19565;46.602;11.534;2023-04-15T03:32:25;37.17;;;35.57;;
33206;SDS011;19565;46.602;11.534;2023-04-15T03:34:53;39.17;;;37.47;;
33206;SDS011;19565;46.602;11.534;2023-04-15T03:37:22;37.40;;;35.80;;
33206;SDS011;19565;46.602;11.534;2023-04-15T03:39:50;18.10;;;17.20;;
33206;SDS011;19565;46.602;11.534;2023-04-15T03:42:18;17.97;;;17.07;;
33206;SDS011;19565;46.602;11.534;2023-04-15T03:44:46;17.50;;;16.70;;
33206;SDS011;19565;46.602;11.534;2023-04-15T03:47:14;16.90;;;16.10;;
33206;SDS011;19565;46.602;11.534;2023-04-15T03:49:42;17.77;;;16.87;;
33206;SDS011;19565;46.602;11.534;2023-04-15T03:52:10;17.57;;;16.67;;
33206;SDS011;19565;46.602;11.534;2023-04-15T03:54:40;18.10;;;17.20;;
33206;SDS011;19565;46.602;11.534;2023-04-15T03:57:08;17.67;;;16.77;;
33206;SDS011;19565;46.602;11.534;2023-04-15T03:59:36;17.93;;;17.03;;
33206;SDS011;19565;46.602;11.534;2023-04-15T04:02:04;17.33;;;16.53;;
33206;SDS011;19565;46.602;11.534;2023-04-15T04:04:32;17.20;;;16.40;;
33206;SDS011;19565;46.602;11.534;2023-04-15T04:07:00;17.53;;;16.63;;
33206;SDS011;19565;46.602;11.534;2023-04-15T04:09:28;17.53;;;16.63;;
33206;SDS011;19565;46.602;11.534;2023-04-15T04:11:58;17.87;;;16.97;;
33206;SDS011;19565;46.602;11.534;2023-04-15T04:14:26;18.00;;;17.10;;
33206;SDS011;19565;46.602;11.534;2023-04-15T04:16:55;18.23;;;17.33;;
33206;SDS011;19565;46.602;11.534;2023-04-15T04:19:23;17.77;;;16.87;;
33206;SDS011;19565;46.602;11.534;2023-04-15T04:21:51;20.13;;;16.20;;
33206;SDS011;19565;46.602;11.534;2023-04-15T04:24:19;17.10;;;16.30;;
33206;SDS011;19565;46.602;11.534;2023-04-15T04:26:47;16.83;;;16.03;;
33206;SDS011;19565;46.602;11.534;2023-04-15T04:29:17;17.30;;;16.50;;
33206;SDS011;19565;46.602;11.534;2023-04-15T04:31:45;17.23;;;16.43;;
33206;SDS011;19565;46.602;11.534;2023-04-15T04:34:14;18.20;;;17.30;;
33206;SDS011;19565;46.602;11.534;2023-04-15T04:36:42;17.43;;;16.53;;
33206;SDS011;19565;46.602;11.534;2023-04-15T04:39:10;18.10;;;17.10;;
33206;SDS011;19565;46.602;11.534;2023-04-15T04:41:37;16.77;;;15.97;;
33206;SDS011;19565;46.602;11.534;2023-04-15T04:44:06;16.83;;;15.93;;
33206;SDS011;19565;46.602;11.534;2023-04-15T04:46:35;17.23;;;16.33;;
33206;SDS011;19565;46.602;11.534;2023-04-15T04:49:03;16.50;;;15.70;;
33206;SDS011;19565;46.602;11.534;2023-04-15T04:51:31;16.80;;;16.00;;
33206;SDS011;19565;46.602;11.534;2023-04-15T04:53:59;16.27;;;15.47;;
33206;SDS011;19565;46.602;11.534;2023-04-15T04:56:29;16.50;;;15.70;;
33206;SDS011;19565;46.602;11.534;2023-04-15T04:58:57;15.83;;;15.03;;
33206;SDS011;19565;46.602;11.534;2023-04-15T05:01:25;15.70;;;14.90;;
33206;SDS011;19565;46.602;11.534;2023-04-15T05:03:55;15.90;;;15.10;;
33206;SDS011;19565;46.602;11.534;2023-04-15T05:06:23;21.23;;;15.20;;
33206;SDS011;19565;46.602;11.534;2023-04-15T05:08:51;15.50;;;14.70;;
33206;SDS011;19565;46.602;11.534;2023-04-15T05:11:19;16.00;;;15.20;;
33206;SDS011;19565;46.602;11.534;2023-04-15T05:13:47;14.90;;;14.20;;
33206;SDS011;19565;46.602;11.534;2023-04-15T05:16:15;15.50;;;14.70;;
33206;SDS011;19565;46.602;11.534;2023-04-15T05:18:43;15.60;;;14.80;;
33206;SDS011;19565;46.602;11.534;2023-04-15T05:21:13;15.93;;;15.13;;
33206;SDS011;19565;46.602;11.534;2023-04-15T05:23:41;15.77;;;14.97;;
33206;SDS011;19565;46.602;11.534;2023-04-15T05:26:09;15.60;;;14.80;;
33206;SDS011;19565;46.602;11.534;2023-04-15T05:28:37;16.73;;;15.93;;
33206;SDS011;19565;46.602;11.534;2023-04-15T05:31:05;15.23;;;14.43;;
33206;SDS011;19565;46.602;11.534;2023-04-15T05:33:34;32.53;;;31.13;;
33206;SDS011;19565;46.602;11.534;2023-04-15T05:36:02;33.47;;;32.07;;
33206;SDS011;19565;46.602;11.534;2023-04-15T05:38:31;33.43;;;32.03;;
33206;SDS011;19565;46.602;11.534;2023-04-15T05:41:01;33.63;;;32.23;;
33206;SDS011;19565;46.602;11.534;2023-04-15T05:43:30;33.00;;;31.60;;
33206;SDS011;19565;46.602;11.534;2023-04-15T05:45:58;33.37;;;31.87;;
33206;SDS011;19565;46.602;11.534;2023-04-15T05:48:26;32.70;;;31.30;;
33206;SDS011;19565;46.602;11.534;2023-04-15T05:50:54;34.80;;;33.30;;
33206;SDS011;19565;46.602;11.534;2023-04-15T05:53:22;33.57;;;32.17;;
33206;SDS011;19565;46.602;11.534;2023-04-15T05:55:51;33.57;;;32.17;;
33206;SDS011;19565;46.602;11.534;2023-04-15T05:58:19;34.53;;;33.03;;
33206;SDS011;19565;46.602;11.534;2023-04-15T06:00:47;35.67;;;34.07;;
33206;SDS011;19565;46.602;11.534;2023-04-15T06:03:15;37.60;;;35.90;;
33206;SDS011;19565;46.602;11.534;2023-04-15T06:05:43;35.93;;;34.23;;
33206;SDS011;19565;46.602;11.534;2023-04-15T06:08:11;36.70;;;35.00;;
33206;SDS011;19565;46.602;11.534;2023-04-15T06:10:39;35.60;;;34.10;;
33206;SDS011;19565;46.602;11.534;2023-04-15T06:13:08;17.47;;;16.57;;
33206;SDS011;19565;46.602;11.534;2023-04-15T06:15:36;17.37;;;16.57;;
33206;SDS011;19565;46.602;11.534;2023-04-15T06:18:04;17.90;;;16.90;;
33206;SDS011;19565;46.602;11.534;2023-04-15T06:20:32;17.83;;;16.93;;
33206;SDS011;19565;46.602;11.534;2023-04-15T06:23:01;17.37;;;16.57;;
33206;SDS011;19565;46.602;11.534;2023-04-15T06:25:29;18.10;;;17.10;;
33206;SDS011;19565;46.602;11.534;2023-04-15T06:27:57;18.10;;;17.10;;
33206;SDS011;19565;46.602;11.534;2023-04-15T06:30:27;18.80;;;17.87;;
33206;SDS011;19565;46.602;11.534;2023-04-15T06:32:55;18.77;;;17.87;;
33206;SDS011;19565;46.602;11.534;2023-04-15T06:35:24;18.83;;;17.93;;
33206;SDS011;19565;46.602;11.534;2023-04-15T06:37:52;18.70;;;17.80;;
33206;SDS011;19565;46.602;11.534;2023-04-15T06:40:20;18.30;;;17.40;;
33206;SDS011;19565;46.602;11.534;2023-04-15T06:42:48;19.97;;;18.87;;
33206;SDS011;19565;46.602;11.534;2023-04-15T06:45:16;19.03;;;18.13;;
33206;SDS011;19565;46.602;11.534;2023-04-15T06:47:46;19.53;;;18.60;;
33206;SDS011;19565;46.602;11.534;2023-04-15T06:50:14;19.00;;;18.10;;
33206;SDS011;19565;46.602;11.534;2023-04-15T06:52:42;19.33;;;18.43;;
33206;SDS011;19565;46.602;11.534;2023-04-15T06:55:10;19.83;;;18.83;;
33206;SDS011;19565;46.602;11.534;2023-04-15T06:57:40;19.50;;;18.60;;
33206;SDS011;19565;46.602;11.534;2023-04-15T07:00:09;19.43;;;18.53;;
33206;SDS011;19565;46.602;11.534;2023-04-15T07:02:37;19.57;;;18.67;;
33206;SDS011;19565;46.602;11.534;2023-04-15T07:05:07;19.37;;;18.47;;
33206;SDS011;19565;46.602;11.534;2023-04-15T07:07:36;20.07;;;19.07;;
33206;SDS011;19565;46.602;11.534;2023-04-15T07:10:04;19.10;;;18.20;;
33206;SDS011;19565;46.602;11.534;2023-04-15T07:12:33;19.77;;;18.77;;
33206;SDS011;19565;46.602;11.534;2023-04-15T07:15:01;20.13;;;19.13;;
33206;SDS011;19565;46.602;11.534;2023-04-15T07:17:30;34.83;;;33.33;;
33206;SDS011;19565;46.602;11.534;2023-04-15T07:19:58;38.27;;;36.57;;
33206;SDS011;19565;46.602;11.534;2023-04-15T07:22:27;37.03;;;35.43;;
33206;SDS011;19565;46.602;11.534;2023-04-15T07:24:55;37.47;;;35.87;;
33206;SDS011;19565;46.602;11.534;2023-04-15T07:27:23;38.33;;;36.63;;
33206;SDS011;19565;46.602;11.534;2023-04-15T07:29:51;40.97;;;39.17;;
33206;SDS011;19565;46.602;11.534;2023-04-15T07:32:19;39.07;;;37.37;;
33206;SDS011;19565;46.602;11.534;2023-04-15T07:34:47;38.57;;;36.87;;
33206;SDS011;19565;46.602;11.534;2023-04-15T07:37:15;37.97;;;36.37;;
33206;SDS011;19565;46.602;11.534;2023-04-15T07:39:45;38.67;;;36.97;;
33206;SDS011;19565;46.602;11.534;2023-04-15T07:42:14;37.47;;;35.77;;
33206;SDS011;19565;46.602;11.534;2023-04-15T07:44:42;37.73;;;36.13;;
33206;SDS011;19565;46.602;11.534;2023-04-15T07:47:10;37.37;;;35.77;;
33206;SDS011;19565;46.602;11.534;2023-04-15T07:49:40;37.27;;;35.67;;
33206;SDS011;19565;46.602;11.534;2023-04-15T07:52:08;38.00;;;36.40;;
33206;SDS011;19565;46.602;11.534;2023-04-15T07:54:36;36.73;;;35.13;;
33206;SDS011;19565;46.602;11.534;2023-04-15T07:57:06;19.60;;;18.67;;
33206;SDS011;19565;46.602;11.534;2023-04-15T07:59:34;18.87;;;17.97;;
33206;SDS011;19565;46.602;11.534;2023-04-15T08:02:02;19.40;;;18.50;;
33206;SDS011;19565;46.602;11.534;2023-04-15T08:04:30;19.53;;;18.63;;
33206;SDS011;19565;46.602;11.534;2023-04-15T08:06:59;20.60;;;19.60;;
33206;SDS011;19565;46.602;11.534;2023-04-15T08:09:27;20.13;;;19.13;;
33206;SDS011;19565;46.602;11.534;2023-04-15T08:11:55;19.97;;;19.00;;
33206;SDS011;19565;46.602;11.534;2023-04-15T08:14:25;19.77;;;18.77;;
33206;SDS011;19565;46.602;11.534;2023-04-15T08:16:53;18.90;;;18.00;;
33206;SDS011;19565;46.602;11.534;2023-04-15T08:19:21;19.20;;;18.30;;
33206;SDS011;19565;46.602;11.534;2023-04-15T08:21:49;19.60;;;18.67;;
33206;SDS011;19565;46.602;11.534;2023-04-15T08:24:18;19.77;;;18.80;;
33206;SDS011;19565;46.602;11.534;2023-04-15T08:26:46;20.00;;;19.00;;
33206;SDS011;19565;46.602;11.534;2023-04-15T08:29:14;37.03;;;34.90;;
33206;SDS011;19565;46.602;11.534;2023-04-15T08:31:44;37.57;;;35.87;;
33206;SDS011;19565;46.602;11.534;2023-04-15T08:34:13;36.70;;;35.10;;
33206;SDS011;19565;46.602;11.534;2023-04-15T08:36:41;37.23;;;35.63;;
33206;SDS011;19565;46.602;11.534;2023-04-15T08:39:09;38.90;;;37.20;;
33206;SDS011;19565;46.602;11.534;2023-04-15T08:41:39;38.63;;;36.97;;
33206;SDS011;19565;46.602;11.534;2023-04-15T08:44:13;39.37;;;37.57;;
33206;SDS011;19565;46.602;11.534;2023-04-15T08:46:41;38.40;;;36.70;;
33206;SDS011;19565;46.602;11.534;2023-04-15T08:49:11;37.60;;;36.00;;
33206;SDS011;19565;46.602;11.534;2023-04-15T08:51:39;37.93;;;36.33;;
33206;SDS011;19565;46.602;11.534;2023-04-15T08:54:08;39.00;;;37.30;;
33206;SDS011;19565;46.602;11.534;2023-04-15T08:56:37;38.77;;;37.07;;
33206;SDS011;19565;46.602;11.534;2023-04-15T08:59:06;38.57;;;36.87;;
33206;SDS011;19565;46.602;11.534;2023-04-15T09:01:35;38.43;;;36.73;;
33206;SDS011;19565;46.602;11.534;2023-04-15T09:04:04;38.00;;;36.40;;
33206;SDS011;19565;46.602;11.534;2023-04-15T09:06:34;37.17;;;35.57;;
33206;SDS011;19565;46.602;11.534;2023-04-15T09:09:02;37.17;;;35.57;;
33206;SDS011;19565;46.602;11.534;2023-04-15T09:11:30;35.93;;;34.33;;
33206;SDS011;19565;46.602;11.534;2023-04-15T09:13:58;38.17;;;36.47;;
33206;SDS011;19565;46.602;11.534;2023-04-15T09:16:26;37.70;;;36.10;;
33206;SDS011;19565;46.602;11.534;2023-04-15T09:18:55;37.33;;;35.73;;
33206;SDS011;19565;46.602;11.534;2023-04-15T09:21:22;38.70;;;37.00;;
33206;SDS011;19565;46.602;11.534;2023-04-15T09:23:56;38.63;;;36.93;;
33206;SDS011;19565;46.602;11.534;2023-04-15T09:26:32;39.30;;;37.47;;
33206;SDS011;19565;46.602;11.534;2023-04-15T09:29:04;37.67;;;36.07;;
33206;SDS011;19565;46.602;11.534;2023-04-15T09:31:33;35.77;;;34.27;;
33206;SDS011;19565;46.602;11.534;2023-04-15T09:34:02;37.50;;;35.90;;
33206;SDS011;19565;46.602;11.534;2023-04-15T09:36:35;39.33;;;37.63;;
33206;SDS011;19565;46.602;11.534;2023-04-15T09:39:19;38.30;;;36.60;;
33206;SDS011;19565;46.602;11.534;2023-04-15T09:41:55;37.87;;;36.27;;
33206;SDS011;19565;46.602;11.534;2023-04-15T09:44:32;37.37;;;35.77;;
33206;SDS011;19565;46.602;11.534;2023-04-15T09:47:00;38.40;;;36.70;;
33206;SDS011;19565;46.602;11.534;2023-04-15T09:49:28;37.87;;;36.27;;
33206;SDS011;19565;46.602;11.534;2023-04-15T09:51:59;39.40;;;37.50;;
33206;SDS011;19565;46.602;11.534;2023-04-15T09:54:33;38.03;;;36.42;;
33206;SDS011;19565;46.602;11.534;2023-04-15T09:57:06;38.50;;;36.80;;
33206;SDS011;19565;46.602;11.534;2023-04-15T09:59:35;38.00;;;36.37;;
33206;SDS011;19565;46.602;11.534;2023-04-15T10:02:04;39.63;;;37.73;;
33206;SDS011;19565;46.602;11.534;2023-04-15T10:04:34;37.60;;;36.00;;
33206;SDS011;19565;46.602;11.534;2023-04-15T10:07:04;37.17;;;35.57;;
33206;SDS011;19565;46.602;11.534;2023-04-15T10:09:35;37.80;;;36.20;;
33206;SDS011;19565;46.602;11.534;2023-04-15T10:12:05;38.77;;;37.07;;
33206;SDS011;19565;46.602;11.534;2023-04-15T10:14:34;20.63;;;19.67;;
33206;SDS011;19565;46.602;11.534;2023-04-15T10:17:04;39.93;;;38.23;;
33206;SDS011;19565;46.602;11.534;2023-04-15T10:19:35;42.53;;;40.83;;
33206;SDS011;19565;46.602;11.534;2023-04-15T10:22:04;20.43;;;19.43;;
33206;SDS011;19565;46.602;11.534;2023-04-15T10:24:33;18.50;;;17.60;;
33206;SDS011;19565;46.602;11.534;2023-04-15T10:27:03;20.73;;;19.73;;
33206;SDS011;19565;46.602;11.534;2023-04-15T10:29:32;27.80;;;26.60;;
33206;SDS011;19565;46.602;11.534;2023-04-15T10:32:01;20.10;;;19.10;;
33206;SDS011;19565;46.602;11.534;2023-04-15T10:34:29;20.20;;;19.20;;
33206;SDS011;19565;46.602;11.534;2023-04-15T10:37:00;20.50;;;19.50;;
33206;SDS011;19565;46.602;11.534;2023-04-15T10:39:38;20.50;;;19.45;;
33206;SDS011;19565;46.602;11.534;2023-04-15T10:42:12;19.75;;;18.85;;
33206;SDS011;19565;46.602;11.534;2023-04-15T10:44:42;35.53;;;34.00;;
33206;SDS011;19565;46.602;11.534;2023-04-15T10:47:13;29.95;;;28.65;;
33206;SDS011;19565;46.602;11.534;2023-04-15T10:49:45;31.63;;;30.33;;
33206;SDS011;19565;46.602;11.534;2023-04-15T10:52:15;29.10;;;27.80;;
33206;SDS011;19565;46.602;11.534;2023-04-15T10:54:44;19.30;;;18.40;;
33206;SDS011;19565;46.602;11.534;2023-04-15T10:57:15;19.58;;;18.67;;
33206;SDS011;19565;46.602;11.534;2023-04-15T10:59:58;19.70;;;18.67;;
33206;SDS011;19565;46.602;11.534;2023-04-15T11:02:39;24.58;;;23.48;;
33206;SDS011;19565;46.602;11.534;2023-04-15T11:05:09;35.28;;;33.78;;
33206;SDS011;19565;46.602;11.534;2023-04-15T11:07:38;31.38;;;29.98;;
33206;SDS011;19565;46.602;11.534;2023-04-15T11:13:15;20.95;;;19.95;;
33206;SDS011;19565;46.602;11.534;2023-04-15T11:15:47;18.95;;;18.05;;
33206;SDS011;19565;46.602;11.534;2023-04-15T11:18:16;18.98;;;18.08;;
33206;SDS011;19565;46.602;11.534;2023-04-15T11:20:46;19.65;;;18.65;;
33206;SDS011;19565;46.602;11.534;2023-04-15T11:23:16;19.60;;;18.60;;
33206;SDS011;19565;46.602;11.534;2023-04-15T11:25:45;19.65;;;18.75;;
33206;SDS011;19565;46.602;11.534;2023-04-15T11:28:15;20.75;;;19.75;;
33206;SDS011;19565;46.602;11.534;2023-04-15T11:30:43;22.10;;;21.10;;
33206;SDS011;19565;46.602;11.534;2023-04-15T11:33:13;35.67;;;34.17;;
33206;SDS011;19565;46.602;11.534;2023-04-15T11:35:41;19.45;;;18.55;;
33206;SDS011;19565;46.602;11.534;2023-04-15T11:38:09;20.90;;;19.90;;
33206;SDS011;19565;46.602;11.534;2023-04-15T11:40:39;20.50;;;19.50;;
33206;SDS011;19565;46.602;11.534;2023-04-15T11:43:12;32.60;;;31.20;;
33206;SDS011;19565;46.602;11.534;2023-04-15T11:45:47;20.85;;;19.85;;
33206;SDS011;19565;46.602;11.534;2023-04-15T11:48:18;23.05;;;22.05;;
33206;SDS011;19565;46.602;11.534;2023-04-15T11:50:51;18.90;;;18.00;;
33206;SDS011;19565;46.602;11.534;2023-04-15T11:53:20;20.33;;;19.23;;
33206;SDS011;19565;46.602;11.534;2023-04-15T11:55:50;20.25;;;19.35;;
33206;SDS011;19565;46.602;11.534;2023-04-15T11:58:22;24.85;;;23.75;;
33206;SDS011;19565;46.602;11.534;2023-04-15T12:00:52;28.75;;;27.55;;
33206;SDS011;19565;46.602;11.534;2023-04-15T12:03:22;28.42;;;27.13;;
33206;SDS011;19565;46.602;11.534;2023-04-15T12:08:49;29.10;;;27.70;;
33206;SDS011;19565;46.602;11.534;2023-04-15T12:11:32;40.80;;;39.17;;
33206;SDS011;19565;46.602;11.534;2023-04-15T12:14:04;35.92;;;34.22;;
33206;SDS011;19565;46.602;11.534;2023-04-15T12:16:35;32.20;;;30.80;;
33206;SDS011;19565;46.602;11.534;2023-04-15T12:19:15;31.65;;;30.35;;
33206;SDS011;19565;46.602;11.534;2023-04-15T12:21:45;31.50;;;30.20;;
33206;SDS011;19565;46.602;11.534;2023-04-15T12:24:14;28.95;;;27.75;;
33206;SDS011;19565;46.602;11.534;2023-04-15T12:26:47;27.88;;;26.67;;
33206;SDS011;19565;46.602;11.534;2023-04-15T12:29:17;21.55;;;20.55;;
33206;SDS011;19565;46.602;11.534;2023-04-15T12:31:47;18.60;;;17.63;;
33206;SDS011;19565;46.602;11.534;2023-04-15T12:34:17;21.30;;;20.30;;
33206;SDS011;19565;46.602;11.534;2023-04-15T12:36:52;20.73;;;19.77;;
33206;SDS011;19565;46.602;11.534;2023-04-15T12:39:20;29.90;;;28.55;;
33206;SDS011;19565;46.602;11.534;2023-04-15T12:41:49;31.48;;;30.17;;
33206;SDS011;19565;46.602;11.534;2023-04-15T12:44:19;25.63;;;24.50;;
33206;SDS011;19565;46.602;11.534;2023-04-15T12:46:49;21.85;;;20.80;;
33206;SDS011;19565;46.602;11.534;2023-04-15T12:49:18;13.25;;;12.55;;
33206;SDS011;19565;46.602;11.534;2023-04-15T12:51:47;19.52;;;18.52;;
33206;SDS011;19565;46.602;11.534;2023-04-15T12:54:16;18.40;;;17.50;;
33206;SDS011;19565;46.602;11.534;2023-04-15T12:56:45;19.60;;;18.70;;
33206;SDS011;19565;46.602;11.534;2023-04-15T12:59:13;19.90;;;19.00;;
33206;SDS011;19565;46.602;11.534;2023-04-15T13:01:43;27.05;;;25.85;;
33206;SDS011;19565;46.602;11.534;2023-04-15T13:04:11;19.52;;;18.63;;
33206;SDS011;19565;46.602;11.534;2023-04-15T13:06:40;21.00;;;20.00;;
33206;SDS011;19565;46.602;11.534;2023-04-15T13:09:08;19.88;;;18.98;;
33206;SDS011;19565;46.602;11.534;2023-04-15T13:11:36;20.48;;;19.50;;
33206;SDS011;19565;46.602;11.534;2023-04-15T13:14:05;18.20;;;17.30;;
33206;SDS011;19565;46.602;11.534;2023-04-15T13:16:34;17.83;;;17.02;;
33206;SDS011;19565;46.602;11.534;2023-04-15T13:19:03;20.48;;;18.90;;
33206;SDS011;19565;46.602;11.534;2023-04-15T13:21:31;19.05;;;18.15;;
33206;SDS011;19565;46.602;11.534;2023-04-15T13:24:01;24.05;;;22.95;;
33206;SDS011;19565;46.602;11.534;2023-04-15T13:26:32;29.42;;;28.13;;
33206;SDS011;19565;46.602;11.534;2023-04-15T13:29:01;24.17;;;23.08;;
33206;SDS011;19565;46.602;11.534;2023-04-15T13:31:29;23.38;;;22.27;;
33206;SDS011;19565;46.602;11.534;2023-04-15T13:33:57;28.85;;;27.65;;
33206;SDS011;19565;46.602;11.534;2023-04-15T13:36:26;25.45;;;24.35;;
33206;SDS011;19565;46.602;11.534;2023-04-15T13:38:54;21.35;;;20.35;;
33206;SDS011;19565;46.602;11.534;2023-04-15T13:41:23;30.30;;;28.40;;
33206;SDS011;19565;46.602;11.534;2023-04-15T13:43:51;26.30;;;25.10;;
33206;SDS011;19565;46.602;11.534;2023-04-15T13:46:19;29.90;;;28.50;;
33206;SDS011;19565;46.602;11.534;2023-04-15T13:48:47;29.80;;;28.50;;
33206;SDS011;19565;46.602;11.534;2023-04-15T13:51:16;28.60;;;27.35;;
33206;SDS011;19565;46.602;11.534;2023-04-15T13:53:45;35.72;;;34.03;;
33206;SDS011;19565;46.602;11.534;2023-04-15T13:56:13;37.97;;;36.40;;
33206;SDS011;19565;46.602;11.534;2023-04-15T13:58:41;39.58;;;37.80;;
33206;SDS011;19565;46.602;11.534;2023-04-15T14:01:09;37.83;;;36.22;;
33206;SDS011;19565;46.602;11.534;2023-04-15T14:03:37;33.08;;;31.58;;
33206;SDS011;19565;46.602;11.534;2023-04-15T14:06:05;32.30;;;30.80;;
33206;SDS011;19565;46.602;11.534;2023-04-15T14:08:33;32.00;;;30.50;;
33206;SDS011;19565;46.602;11.534;2023-04-15T14:11:03;34.15;;;32.65;;
33206;SDS011;19565;46.602;11.534;2023-04-15T14:13:31;33.55;;;32.05;;
33206;SDS011;19565;46.602;11.534;2023-04-15T14:15:59;31.08;;;29.77;;
33206;SDS011;19565;46.602;11.534;2023-04-15T14:18:27;19.23;;;18.33;;
33206;SDS011;19565;46.602;11.534;2023-04-15T14:20:55;19.30;;;18.40;;
33206;SDS011;19565;46.602;11.534;2023-04-15T14:23:23;20.85;;;19.85;;
33206;SDS011;19565;46.602;11.534;2023-04-15T14:25:51;20.17;;;19.13;;